createdAt,value
2016-12-05T00:00:14.205Z,99.99
2016-12-05T00:01:25.350Z,99.99
2016-12-05T00:02:36.526Z,99.99
2016-12-05T00:03:47.674Z,99.99
2016-12-05T00:04:58.828Z,99.99
2016-12-05T00:06:10.012Z,99.99
2016-12-05T00:07:21.154Z,99.99
2016-12-05T00:08:32.313Z,99.99
2016-12-05T00:09:43.483Z,99.99
2016-12-05T00:10:54.656Z,99.99
2016-12-05T00:12:05.841Z,99.99
2016-12-05T00:13:16.990Z,99.99
2016-12-05T00:14:28.171Z,99.99
2016-12-05T00:15:39.533Z,99.99
2016-12-05T00:16:50.676Z,99.99
2016-12-05T00:18:01.948Z,99.99
2016-12-05T00:19:13.114Z,99.99
2016-12-05T00:20:24.246Z,99.99
2016-12-05T00:21:35.417Z,99.99
2016-12-05T00:22:46.582Z,99.99
2016-12-05T00:23:57.723Z,99.99
2016-12-05T00:25:08.891Z,99.99
2016-12-05T00:26:20.035Z,99.99
2016-12-05T00:27:31.259Z,99.99
2016-12-05T00:28:42.470Z,99.99
2016-12-05T00:29:53.639Z,99.99
2016-12-05T00:31:04.791Z,99.99
2016-12-05T00:32:15.934Z,99.99
2016-12-05T00:33:27.072Z,99.99
2016-12-05T00:34:38.220Z,99.99
2016-12-05T00:35:49.376Z,99.99
2016-12-05T00:37:00.546Z,99.99
2016-12-05T00:38:11.728Z,99.99
2016-12-05T00:39:22.889Z,99.99
2016-12-05T00:40:34.073Z,99.99
2016-12-05T00:41:45.254Z,99.99
2016-12-05T00:42:56.396Z,99.99
2016-12-05T00:44:07.553Z,99.99
2016-12-05T00:45:18.677Z,99.99
2016-12-05T00:46:30.386Z,99.99
2016-12-05T00:47:41.549Z,99.99
2016-12-05T00:48:52.700Z,99.99
2016-12-05T00:50:03.869Z,99.99
2016-12-05T00:51:15.026Z,99.99
2016-12-05T00:52:26.160Z,99.99
2016-12-05T00:53:37.318Z,99.99
2016-12-05T00:54:48.466Z,99.99
2016-12-05T00:56:00.178Z,99.99
2016-12-05T00:57:11.325Z,99.99
2016-12-05T00:58:22.468Z,99.99
2016-12-05T00:59:33.615Z,99.99
2016-12-05T01:00:44.790Z,99.99
2016-12-05T01:01:55.946Z,99.99
2016-12-05T01:03:07.127Z,99.99
2016-12-05T01:04:18.274Z,99.99
2016-12-05T01:05:29.420Z,99.99
2016-12-05T01:06:40.564Z,99.99
2016-12-05T01:07:51.716Z,99.99
2016-12-05T01:09:02.860Z,99.99
2016-12-05T01:10:14.009Z,99.99
2016-12-05T01:11:25.163Z,99.99
2016-12-05T01:12:36.331Z,99.99
2016-12-05T01:13:47.486Z,99.99
2016-12-05T01:14:58.684Z,99.99
2016-12-05T01:16:09.815Z,99.99
2016-12-05T01:17:20.968Z,99.99
2016-12-05T01:18:32.120Z,99.99
2016-12-05T01:19:43.278Z,99.99
2016-12-05T01:20:54.419Z,99.99
2016-12-05T01:22:05.567Z,99.99
2016-12-05T01:23:16.716Z,99.99
2016-12-05T01:24:27.872Z,99.99
2016-12-05T01:25:39.031Z,99.99
2016-12-05T01:26:50.205Z,99.99
2016-12-05T01:28:01.368Z,99.99
2016-12-05T01:29:12.520Z,99.99
2016-12-05T01:30:24.305Z,99.99
2016-12-05T01:31:35.445Z,99.99
2016-12-05T01:32:46.610Z,99.99
2016-12-05T01:33:57.754Z,99.99
2016-12-05T01:35:08.911Z,99.99
2016-12-05T01:36:20.092Z,99.99
2016-12-05T01:37:31.248Z,99.99
2016-12-05T01:38:42.397Z,99.99
2016-12-05T01:39:53.567Z,99.99
2016-12-05T01:41:04.740Z,99.99
2016-12-05T01:42:15.898Z,99.99
2016-12-05T01:43:27.060Z,99.99
2016-12-05T01:44:38.204Z,99.99
2016-12-05T01:45:49.362Z,99.99
2016-12-05T01:47:00.497Z,99.99
2016-12-05T01:48:11.667Z,99.99
2016-12-05T01:49:22.836Z,99.99
2016-12-05T01:50:34.024Z,99.99
2016-12-05T01:51:45.177Z,99.99
2016-12-05T01:52:56.339Z,99.99
2016-12-05T01:54:07.499Z,99.99
2016-12-05T01:55:18.663Z,99.99
2016-12-05T01:56:29.814Z,99.99
2016-12-05T01:57:40.980Z,99.99
2016-12-05T01:58:52.139Z,99.99
2016-12-05T02:00:03.318Z,99.99
2016-12-05T02:01:14.511Z,99.99
2016-12-05T02:02:25.651Z,99.99
2016-12-05T02:03:36.813Z,99.99
2016-12-05T02:04:47.979Z,99.99
2016-12-05T02:05:59.119Z,99.99
2016-12-05T02:07:10.276Z,99.99
2016-12-05T02:08:21.442Z,99.99
2016-12-05T02:09:32.570Z,99.99
2016-12-05T02:10:43.717Z,99.99
2016-12-05T02:11:54.908Z,99.99
2016-12-05T02:13:06.074Z,99.99
2016-12-05T02:14:17.258Z,99.99
2016-12-05T02:15:28.418Z,99.99
2016-12-05T02:16:39.582Z,99.99
2016-12-05T02:17:50.745Z,99.99
2016-12-05T02:19:01.940Z,99.99
2016-12-05T02:20:13.085Z,99.99
2016-12-05T02:21:24.268Z,99.99
2016-12-05T02:22:35.411Z,99.99
2016-12-05T02:23:46.537Z,99.99
2016-12-05T02:24:57.681Z,99.99
2016-12-05T02:26:08.844Z,99.99
2016-12-05T02:27:19.993Z,99.99
2016-12-05T02:28:31.148Z,99.99
2016-12-05T02:29:42.330Z,99.99
2016-12-05T02:30:53.499Z,99.99
2016-12-05T02:32:04.656Z,99.99
2016-12-05T02:33:15.805Z,99.99
2016-12-05T02:34:26.949Z,99.99
2016-12-05T02:35:38.114Z,99.99
2016-12-05T02:36:49.303Z,99.99
2016-12-05T02:38:00.462Z,99.99
2016-12-05T02:39:11.599Z,99.99
2016-12-05T02:40:22.746Z,99.99
2016-12-05T02:41:33.890Z,99.99
2016-12-05T02:42:45.070Z,99.99
2016-12-05T02:43:56.243Z,99.99
2016-12-05T02:45:07.428Z,99.99
2016-12-05T02:46:18.595Z,99.99
2016-12-05T02:47:29.761Z,99.99
2016-12-05T02:48:40.965Z,99.99
2016-12-05T02:49:52.129Z,99.99
2016-12-05T02:51:03.301Z,99.99
2016-12-05T02:52:14.459Z,99.99
2016-12-05T02:53:25.608Z,99.99
2016-12-05T02:54:36.833Z,99.99
2016-12-05T02:55:47.989Z,99.99
2016-12-05T02:56:59.147Z,99.99
2016-12-05T02:58:10.303Z,99.99
2016-12-05T02:59:21.468Z,99.99
2016-12-05T03:00:32.615Z,99.99
2016-12-05T03:01:43.748Z,99.99
2016-12-05T03:02:54.891Z,99.99
2016-12-05T03:04:06.048Z,99.99
2016-12-05T03:05:17.209Z,99.99
2016-12-05T03:06:28.372Z,99.99
2016-12-05T03:07:39.530Z,99.99
2016-12-05T03:08:50.710Z,99.99
2016-12-05T03:10:01.864Z,99.99
2016-12-05T03:11:13.012Z,99.99
2016-12-05T03:12:24.172Z,99.99
2016-12-05T03:13:35.359Z,99.99
2016-12-05T03:14:46.520Z,99.99
2016-12-05T03:15:57.669Z,99.99
2016-12-05T03:17:08.822Z,99.99
2016-12-05T03:18:19.990Z,99.99
2016-12-05T03:19:31.151Z,99.99
2016-12-05T03:20:42.346Z,99.99
2016-12-05T03:21:53.525Z,99.99
2016-12-05T03:23:04.699Z,99.99
2016-12-05T03:24:15.849Z,99.99
2016-12-05T03:25:27.029Z,99.99
2016-12-05T03:26:38.198Z,99.99
2016-12-05T03:27:49.362Z,99.99
2016-12-05T03:29:00.508Z,99.99
2016-12-05T03:30:11.646Z,99.99
2016-12-05T03:31:22.782Z,99.99
2016-12-05T03:32:33.957Z,99.99
2016-12-05T03:33:45.098Z,99.99
2016-12-05T03:34:56.253Z,99.99
2016-12-05T03:36:07.410Z,99.99
2016-12-05T03:37:18.554Z,99.99
2016-12-05T03:38:29.698Z,99.99
2016-12-05T03:39:40.883Z,99.99
2016-12-05T03:40:52.045Z,99.99
2016-12-05T03:42:03.214Z,99.99
2016-12-05T03:43:14.355Z,99.99
2016-12-05T03:44:25.523Z,99.99
2016-12-05T03:45:36.698Z,99.99
2016-12-05T03:46:47.845Z,99.99
2016-12-05T03:47:59.001Z,99.99
2016-12-05T03:49:10.146Z,99.99
2016-12-05T03:50:22.204Z,99.99
2016-12-05T03:51:34.325Z,99.99
2016-12-05T03:52:45.488Z,99.99
2016-12-05T03:53:56.630Z,99.99
2016-12-05T03:55:07.775Z,99.99
2016-12-05T03:56:18.960Z,99.99
2016-12-05T03:57:30.101Z,99.99
2016-12-05T03:58:41.256Z,99.99
2016-12-05T03:59:52.433Z,99.99
2016-12-05T04:01:03.609Z,99.99
2016-12-05T04:02:14.770Z,99.99
2016-12-05T04:03:25.940Z,99.99
2016-12-05T04:04:37.088Z,99.99
2016-12-05T04:05:48.240Z,99.99
2016-12-05T04:06:59.388Z,99.99
2016-12-05T04:08:10.543Z,99.99
2016-12-05T04:09:21.773Z,99.99
2016-12-05T04:10:33.526Z,99.99
2016-12-05T04:11:44.698Z,99.99
2016-12-05T04:12:55.856Z,99.99
2016-12-05T04:14:07.011Z,99.99
2016-12-05T04:15:18.193Z,99.99
2016-12-05T04:16:29.350Z,99.99
2016-12-05T04:17:40.537Z,99.99
2016-12-05T04:18:51.690Z,99.99
2016-12-05T04:20:02.881Z,99.99
2016-12-05T04:21:14.039Z,99.99
2016-12-05T04:22:25.191Z,99.99
2016-12-05T04:23:36.398Z,99.99
2016-12-05T04:24:47.597Z,99.99
2016-12-05T04:25:58.766Z,99.99
2016-12-05T04:27:09.943Z,99.99
2016-12-05T04:28:21.113Z,99.99
2016-12-05T04:29:32.285Z,99.99
2016-12-05T04:30:43.435Z,99.99
2016-12-05T04:31:54.602Z,99.99
2016-12-05T04:33:05.801Z,99.99
2016-12-05T04:34:16.959Z,99.99
2016-12-05T04:35:28.104Z,99.99
2016-12-05T04:36:39.259Z,99.99
2016-12-05T04:37:50.438Z,99.99
2016-12-05T04:39:01.601Z,99.99
2016-12-05T04:40:12.752Z,99.99
2016-12-05T04:41:23.879Z,99.99
2016-12-05T04:42:35.602Z,99.99
2016-12-05T04:43:46.791Z,99.99
2016-12-05T04:44:57.973Z,99.99
2016-12-05T04:46:09.134Z,99.99
2016-12-05T04:47:20.290Z,99.99
2016-12-05T04:48:31.455Z,99.99
2016-12-05T04:49:42.636Z,99.99
2016-12-05T04:50:53.778Z,99.99
2016-12-05T04:52:04.947Z,99.99
2016-12-05T04:53:16.119Z,99.99
2016-12-05T04:54:27.282Z,99.99
2016-12-05T04:55:38.419Z,99.99
2016-12-05T04:56:49.555Z,99.99
2016-12-05T04:58:00.691Z,99.99
2016-12-05T04:59:11.849Z,99.99
2016-12-05T05:00:23.013Z,99.99
2016-12-05T05:01:34.180Z,99.99
2016-12-05T05:02:45.382Z,99.99
2016-12-05T05:03:56.527Z,99.99
2016-12-05T05:05:07.694Z,99.99
2016-12-05T05:06:18.851Z,99.99
2016-12-05T05:07:30.026Z,99.99
2016-12-05T05:08:41.176Z,99.99
2016-12-05T05:09:52.360Z,99.99
2016-12-05T05:11:03.529Z,99.99
2016-12-05T05:12:14.697Z,99.99
2016-12-05T05:13:25.867Z,99.99
2016-12-05T05:14:37.019Z,99.99
2016-12-05T05:15:48.155Z,99.99
2016-12-05T05:16:59.307Z,99.99
2016-12-05T05:18:10.476Z,99.99
2016-12-05T05:19:21.613Z,99.99
2016-12-05T05:20:32.765Z,99.99
2016-12-05T05:21:43.909Z,99.99
2016-12-05T05:22:55.065Z,99.99
2016-12-05T05:24:06.213Z,99.99
2016-12-05T05:25:17.376Z,99.99
2016-12-05T05:26:28.575Z,99.99
2016-12-05T05:27:39.753Z,99.99
2016-12-05T05:28:50.931Z,99.99
2016-12-05T05:30:02.124Z,99.99
2016-12-05T05:31:13.245Z,99.99
2016-12-05T05:32:24.965Z,99.99
2016-12-05T05:33:36.153Z,99.99
2016-12-05T05:34:47.287Z,99.99
2016-12-05T05:35:58.464Z,99.99
2016-12-05T05:37:09.630Z,99.99
2016-12-05T05:38:20.774Z,99.99
2016-12-05T05:39:31.947Z,99.99
2016-12-05T05:40:43.120Z,99.99
2016-12-05T05:41:55.444Z,99.99
2016-12-05T05:43:06.602Z,99.99
2016-12-05T05:44:17.767Z,99.99
2016-12-05T05:45:28.954Z,99.99
2016-12-05T05:46:40.123Z,99.99
2016-12-05T05:47:51.254Z,99.99
2016-12-05T05:49:02.415Z,99.99
2016-12-05T05:50:13.592Z,99.99
2016-12-05T05:51:24.759Z,99.99
2016-12-05T05:52:35.954Z,99.99
2016-12-05T05:53:47.124Z,99.99
2016-12-05T05:54:58.302Z,99.99
2016-12-05T05:56:09.493Z,99.99
2016-12-05T05:57:20.670Z,99.99
2016-12-05T05:58:31.854Z,99.99
2016-12-05T05:59:43.024Z,99.99
2016-12-05T06:00:54.189Z,99.99
2016-12-05T06:02:05.376Z,99.99
2016-12-05T06:03:16.545Z,99.99
2016-12-05T06:04:27.720Z,99.99
2016-12-05T06:05:38.883Z,99.99
2016-12-05T06:06:50.068Z,99.99
2016-12-05T06:08:01.233Z,99.99
2016-12-05T06:09:12.412Z,99.99
2016-12-05T06:10:23.583Z,99.99
2016-12-05T06:11:34.733Z,99.99
2016-12-05T06:12:45.911Z,99.99
2016-12-05T06:13:57.073Z,99.99
2016-12-05T06:15:08.241Z,99.99
2016-12-05T06:16:19.424Z,99.99
2016-12-05T06:17:30.597Z,99.99
2016-12-05T06:18:41.791Z,99.99
2016-12-05T06:19:52.956Z,99.99
2016-12-05T06:21:04.129Z,99.99
2016-12-05T06:22:15.329Z,99.99
2016-12-05T06:23:26.512Z,99.99
2016-12-05T06:24:37.672Z,99.99
2016-12-05T06:25:48.869Z,99.99
2016-12-05T06:27:00.041Z,99.99
2016-12-05T06:28:11.206Z,99.99
2016-12-05T06:29:22.380Z,99.99
2016-12-05T06:30:33.522Z,99.99
2016-12-05T06:31:44.664Z,99.99
2016-12-05T06:32:55.803Z,99.99
2016-12-05T06:34:06.971Z,99.99
2016-12-05T06:35:18.127Z,99.99
2016-12-05T06:36:29.855Z,99.99
2016-12-05T06:37:41.033Z,99.99
2016-12-05T06:38:52.193Z,99.99
2016-12-05T06:40:03.372Z,99.99
2016-12-05T06:41:14.559Z,99.99
2016-12-05T06:42:25.715Z,99.99
2016-12-05T06:43:36.895Z,99.99
2016-12-05T06:44:48.045Z,99.99
2016-12-05T06:45:59.202Z,99.99
2016-12-05T06:47:10.972Z,99.99
2016-12-05T06:48:22.152Z,99.99
2016-12-05T06:49:33.282Z,99.99
2016-12-05T06:50:44.420Z,99.99
2016-12-05T06:51:55.595Z,99.99
2016-12-05T06:53:06.767Z,99.99
2016-12-05T06:54:17.931Z,99.99
2016-12-05T06:55:29.108Z,99.99
2016-12-05T06:56:40.254Z,99.99
2016-12-05T06:57:51.399Z,99.99
2016-12-05T06:59:03.744Z,99.99
2016-12-05T07:00:14.919Z,99.99
2016-12-05T07:01:26.086Z,99.99
2016-12-05T07:02:37.842Z,99.99
2016-12-05T07:03:49.033Z,99.99
2016-12-05T07:05:00.200Z,99.99
2016-12-05T07:06:11.349Z,99.99
2016-12-05T07:07:22.495Z,99.99
2016-12-05T07:08:33.666Z,99.99
2016-12-05T07:09:44.842Z,99.99
2016-12-05T07:10:55.999Z,99.99
2016-12-05T07:12:07.140Z,99.99
2016-12-05T07:13:18.312Z,99.99
2016-12-05T07:14:29.473Z,99.99
2016-12-05T07:15:40.637Z,99.99
2016-12-05T07:16:51.821Z,99.99
2016-12-05T07:18:02.980Z,99.99
2016-12-05T07:19:14.154Z,99.99
2016-12-05T07:20:25.330Z,99.99
2016-12-05T07:21:36.512Z,99.99
2016-12-05T07:22:47.699Z,99.99
2016-12-05T07:23:58.887Z,99.99
2016-12-05T07:25:10.034Z,99.99
2016-12-05T07:26:21.191Z,99.99
2016-12-05T07:27:32.351Z,99.99
2016-12-05T07:28:43.499Z,99.99
2016-12-05T07:29:54.675Z,99.99
2016-12-05T07:31:05.841Z,99.99
2016-12-05T07:32:16.995Z,99.99
2016-12-05T07:33:28.134Z,99.99
2016-12-05T07:34:39.270Z,99.99
2016-12-05T07:35:50.429Z,99.99
2016-12-05T07:37:01.553Z,99.99
2016-12-05T07:38:12.742Z,99.99
2016-12-05T07:39:23.896Z,99.99
2016-12-05T07:40:35.076Z,99.99
2016-12-05T07:41:46.223Z,99.99
2016-12-05T07:42:57.385Z,99.99
2016-12-05T07:44:08.545Z,99.99
2016-12-05T07:45:19.736Z,99.99
2016-12-05T07:46:30.966Z,99.99
2016-12-05T07:47:42.100Z,99.99
2016-12-05T07:48:53.238Z,99.99
2016-12-05T07:50:04.405Z,99.99
2016-12-05T07:51:16.140Z,99.99
2016-12-05T07:52:27.300Z,99.99
2016-12-05T07:53:38.463Z,99.99
2016-12-05T07:54:49.634Z,99.99
2016-12-05T07:56:00.800Z,99.99
2016-12-05T07:57:11.969Z,99.99
2016-12-05T07:58:23.143Z,99.99
2016-12-05T07:59:34.312Z,99.99
2016-12-05T08:00:45.481Z,99.99
2016-12-05T08:01:56.646Z,99.99
2016-12-05T08:03:07.810Z,99.99
2016-12-05T08:04:18.949Z,99.99
2016-12-05T08:05:30.151Z,99.99
2016-12-05T08:06:41.298Z,99.99
2016-12-05T08:07:52.462Z,99.99
2016-12-05T08:09:03.617Z,99.99
2016-12-05T08:10:14.799Z,99.99
2016-12-05T08:11:25.956Z,99.99
2016-12-05T08:12:37.135Z,99.99
2016-12-05T08:13:48.297Z,99.99
2016-12-05T08:14:59.449Z,99.99
2016-12-05T08:16:10.650Z,99.99
2016-12-05T08:17:21.793Z,99.99
2016-12-05T08:18:32.934Z,99.99
2016-12-05T08:19:44.115Z,99.99
2016-12-05T08:20:55.303Z,99.99
2016-12-05T08:22:06.468Z,99.99
2016-12-05T08:23:17.635Z,99.99
2016-12-05T08:24:28.857Z,99.99
2016-12-05T08:25:40.022Z,99.99
2016-12-05T08:26:51.196Z,99.99
2016-12-05T08:28:02.371Z,99.99
2016-12-05T08:29:13.518Z,99.99
2016-12-05T08:30:24.693Z,99.99
2016-12-05T08:31:35.869Z,99.99
2016-12-05T08:32:47.030Z,99.99
2016-12-05T08:33:58.218Z,99.99
2016-12-05T08:35:09.349Z,99.99
2016-12-05T08:36:20.498Z,99.99
2016-12-05T08:37:31.680Z,99.99
2016-12-05T08:38:42.845Z,99.99
2016-12-05T08:39:53.998Z,99.99
2016-12-05T08:41:05.130Z,99.99
2016-12-05T08:42:16.287Z,99.99
2016-12-05T08:43:27.447Z,99.99
2016-12-05T08:44:38.646Z,99.99
2016-12-05T08:45:49.794Z,99.99
2016-12-05T08:47:00.948Z,99.99
2016-12-05T08:48:12.111Z,99.99
2016-12-05T08:49:23.263Z,99.99
2016-12-05T08:50:34.452Z,99.99
2016-12-05T08:51:45.616Z,99.99
2016-12-05T08:52:56.779Z,99.99
2016-12-05T08:54:07.923Z,99.99
2016-12-05T08:55:19.068Z,99.99
2016-12-05T08:56:30.214Z,99.99
2016-12-05T08:57:41.372Z,99.99
2016-12-05T08:58:52.514Z,99.99
2016-12-05T09:00:03.646Z,99.99
2016-12-05T09:01:14.799Z,99.99
2016-12-05T09:02:25.969Z,99.99
2016-12-05T09:03:37.129Z,99.99
2016-12-05T09:04:48.289Z,99.99
2016-12-05T09:05:59.458Z,99.99
2016-12-05T09:07:10.655Z,99.99
2016-12-05T09:08:21.802Z,99.99
2016-12-05T09:09:32.946Z,99.99
2016-12-05T09:10:44.109Z,99.99
2016-12-05T09:11:55.281Z,99.99
2016-12-05T09:13:06.403Z,99.99
2016-12-05T09:14:17.563Z,99.99
2016-12-05T09:15:28.714Z,99.99
2016-12-05T09:16:39.864Z,99.99
2016-12-05T09:17:51.013Z,99.99
2016-12-05T09:19:02.194Z,99.99
2016-12-05T09:20:13.345Z,99.99
2016-12-05T09:21:24.526Z,99.99
2016-12-05T09:22:35.686Z,99.99
2016-12-05T09:23:46.849Z,99.99
2016-12-05T09:24:57.991Z,99.99
2016-12-05T09:26:09.133Z,99.99
2016-12-05T09:27:20.268Z,99.99
2016-12-05T09:28:31.420Z,99.99
2016-12-05T09:29:42.548Z,99.99
2016-12-05T09:30:53.752Z,99.99
2016-12-05T09:32:04.887Z,99.99
2016-12-05T09:33:16.042Z,99.99
2016-12-05T09:34:27.217Z,99.99
2016-12-05T09:35:38.399Z,99.99
2016-12-05T09:36:49.561Z,99.99
2016-12-05T09:38:00.749Z,99.99
2016-12-05T09:39:11.922Z,99.99
2016-12-05T09:40:23.123Z,99.99
2016-12-05T09:41:34.862Z,99.99
2016-12-05T09:42:46.018Z,99.99
2016-12-05T09:43:57.184Z,99.05
2016-12-05T09:45:08.356Z,98.53
2016-12-05T09:46:19.500Z,94.12
2016-12-05T09:47:30.659Z,96.42
2016-12-05T09:48:41.825Z,96.8
2016-12-05T09:49:52.991Z,98.1
2016-12-05T09:51:04.150Z,99.99
2016-12-05T09:52:15.294Z,99.39
2016-12-05T09:53:26.479Z,99.77
2016-12-05T09:54:37.651Z,97.66
2016-12-05T09:55:48.815Z,98.43
2016-12-05T09:56:59.968Z,99.48
2016-12-05T09:58:11.685Z,98.28
2016-12-05T09:59:22.855Z,97.71
2016-12-05T10:00:33.994Z,98.57
2016-12-05T10:01:45.176Z,99.15
2016-12-05T10:02:56.324Z,97.66
2016-12-05T10:04:07.507Z,98.91
2016-12-05T10:05:18.677Z,98.43
2016-12-05T10:06:29.817Z,98.33
2016-12-05T10:07:40.957Z,97.66
2016-12-05T10:08:52.115Z,98.19
2016-12-05T10:10:03.253Z,96.8
2016-12-05T10:11:14.412Z,93.2
2016-12-05T10:12:25.602Z,91.47
2016-12-05T10:13:36.760Z,90.9
2016-12-05T10:14:48.469Z,91.09
2016-12-05T10:15:59.594Z,92.43
2016-12-05T10:17:10.770Z,88.06
2016-12-05T10:18:21.939Z,86.28
2016-12-05T10:19:33.103Z,85.65
2016-12-05T10:20:44.280Z,85.84
2016-12-05T10:21:55.448Z,87.43
2016-12-05T10:23:06.624Z,87.15
2016-12-05T10:24:17.799Z,89.22
2016-12-05T10:25:28.957Z,87.01
2016-12-05T10:26:40.125Z,84.98
2016-12-05T10:27:51.270Z,82.32
2016-12-05T10:29:02.410Z,77.34
2016-12-05T10:30:13.577Z,74.43
2016-12-05T10:31:24.747Z,73.02
2016-12-05T10:33:47.119Z,74.18
2016-12-05T10:34:58.294Z,75.82
2016-12-05T10:36:09.459Z,75.55
2016-12-05T10:37:20.616Z,74.82
2016-12-05T10:38:31.800Z,76.71
2016-12-05T10:39:42.977Z,78.92
2016-12-05T10:40:54.125Z,77.25
2016-12-05T10:42:05.282Z,76.86
2016-12-05T10:43:16.436Z,78.98
2016-12-05T10:44:27.606Z,78.4
2016-12-05T10:45:38.783Z,79.33
2016-12-05T10:46:49.952Z,79.33
2016-12-05T10:48:01.103Z,76.96
2016-12-05T10:49:12.386Z,77.09
2016-12-05T10:50:24.185Z,77.25
2016-12-05T10:51:35.393Z,77.53
2016-12-05T10:52:46.572Z,76.28
2016-12-05T10:53:57.780Z,75.84
2016-12-05T10:55:08.949Z,76.32
2016-12-05T10:56:20.091Z,75.8
2016-12-05T10:57:31.244Z,76.13
2016-12-05T10:58:42.414Z,76.38
2016-12-05T10:59:53.594Z,78.17
2016-12-05T11:01:04.743Z,78.36
2016-12-05T11:02:15.907Z,79.67
2016-12-05T11:03:27.070Z,79.28
2016-12-05T11:04:38.252Z,79.77
2016-12-05T11:05:49.399Z,80.3
2016-12-05T11:07:01.726Z,81.27
2016-12-05T11:08:12.917Z,82.23
2016-12-05T11:09:24.085Z,80.54
2016-12-05T11:10:35.283Z,80.35
2016-12-05T11:11:47.044Z,79
2016-12-05T11:12:58.252Z,81.63
2016-12-05T11:14:10.012Z,79.77
2016-12-05T11:15:21.177Z,78.94
2016-12-05T11:16:32.345Z,77.53
2016-12-05T11:17:43.505Z,77.34
2016-12-05T11:18:54.703Z,78.21
2016-12-05T11:20:06.489Z,78.59
2016-12-05T11:21:18.239Z,77.69
2016-12-05T11:22:29.415Z,77.88
2016-12-05T11:23:40.588Z,77.88
2016-12-05T11:24:51.763Z,77.21
2016-12-05T11:26:02.937Z,77.53
2016-12-05T11:27:14.101Z,76.76
2016-12-05T11:28:25.288Z,76.67
2016-12-05T11:29:36.628Z,76.57
2016-12-05T11:30:47.863Z,74.26
2016-12-05T11:31:59.009Z,75.26
2016-12-05T11:33:10.150Z,74.14
2016-12-05T11:34:21.303Z,73.37
2016-12-05T11:35:32.459Z,73.85
2016-12-05T11:36:43.657Z,77
2016-12-05T11:37:54.810Z,75.93
2016-12-05T11:39:07.712Z,76.38
2016-12-05T11:40:18.946Z,73.62
2016-12-05T11:41:30.117Z,73.37
2016-12-05T11:42:41.293Z,70.9
2016-12-05T11:43:52.491Z,71.03
2016-12-05T11:45:04.245Z,68.46
2016-12-05T11:46:15.457Z,67.72
2016-12-05T11:47:26.626Z,69.17
2016-12-05T11:48:37.818Z,70.04
2016-12-05T11:49:49.112Z,70.1
2016-12-05T11:51:00.279Z,68.4
2016-12-05T11:52:11.467Z,68.01
2016-12-05T11:53:22.669Z,69.65
2016-12-05T11:54:33.841Z,69.9
2016-12-05T11:55:45.019Z,69.62
2016-12-05T11:56:56.222Z,69.81
2016-12-05T11:58:07.383Z,68.49
2016-12-05T11:59:18.538Z,68.59
2016-12-05T12:00:29.705Z,69.46
2016-12-05T12:01:40.867Z,71.94
2016-12-05T12:02:52.045Z,71.74
2016-12-05T12:04:03.188Z,73.54
2016-12-05T12:05:14.393Z,71.7
2016-12-05T12:06:25.557Z,71.12
2016-12-05T12:07:36.766Z,72.58
2016-12-05T12:08:47.915Z,73.06
2016-12-05T12:09:59.082Z,70.54
2016-12-05T12:11:10.267Z,71.16
2016-12-05T12:12:21.420Z,72.42
2016-12-05T12:13:32.622Z,72.32
2016-12-05T12:14:44.331Z,71.61
2016-12-05T12:15:55.511Z,72.38
2016-12-05T12:17:06.706Z,73.99
2016-12-05T12:18:17.901Z,71.67
2016-12-05T12:19:29.066Z,73.15
2016-12-05T12:20:40.247Z,74.85
2016-12-05T12:21:51.408Z,74.76
2016-12-05T12:23:02.586Z,73.35
2016-12-05T12:24:13.736Z,72.67
2016-12-05T12:25:24.911Z,70.2
2016-12-05T12:26:36.111Z,69.74
2016-12-05T12:27:47.267Z,68.14
2016-12-05T12:28:58.425Z,69.98
2016-12-05T12:30:09.578Z,69.84
2016-12-05T12:31:20.833Z,68.94
2016-12-05T12:32:32.009Z,69.84
2016-12-05T12:33:43.167Z,70.62
2016-12-05T12:34:54.347Z,70.72
2016-12-05T12:36:05.544Z,71.64
2016-12-05T12:37:16.721Z,72.77
2016-12-05T12:38:27.890Z,72.58
2016-12-05T12:39:39.080Z,71.7
2016-12-05T12:40:50.274Z,71.94
2016-12-05T12:42:01.447Z,72.52
2016-12-05T12:43:12.667Z,72.13
2016-12-05T12:44:23.840Z,71.3
2016-12-05T12:45:35.045Z,73
2016-12-05T12:46:46.232Z,73.06
2016-12-05T12:47:57.411Z,72.09
2016-12-05T12:49:08.597Z,72.86
2016-12-05T12:50:19.781Z,72.22
2016-12-05T12:51:30.975Z,72.03
2016-12-05T12:52:42.712Z,71.3
2016-12-05T12:53:53.868Z,70.84
2016-12-05T12:55:05.053Z,71.68
2016-12-05T12:56:16.234Z,72.22
2016-12-05T12:57:27.411Z,73.86
2016-12-05T12:58:38.595Z,71.1
2016-12-05T12:59:49.753Z,69.68
2016-12-05T13:01:00.914Z,70.2
2016-12-05T13:02:12.102Z,72.3
2016-12-05T13:03:23.261Z,70.72
2016-12-05T13:04:34.553Z,71.2
2016-12-05T13:05:46.137Z,73.9
2016-12-05T13:06:57.300Z,70.9
2016-12-05T13:08:08.465Z,68.91
2016-12-05T13:09:19.621Z,70.78
2016-12-05T13:10:30.784Z,69.92
2016-12-05T13:11:41.957Z,69.24
2016-12-05T13:12:53.125Z,67.79
2016-12-05T13:14:04.317Z,70.68
2016-12-05T13:15:15.502Z,70.56
2016-12-05T13:16:26.707Z,72.94
2016-12-05T13:17:37.922Z,72.45
2016-12-05T13:18:49.655Z,71.14
2016-12-05T13:20:00.826Z,71.81
2016-12-05T13:21:11.984Z,73.13
2016-12-05T13:22:23.139Z,73.58
2016-12-05T13:23:34.284Z,71.55
2016-12-05T13:24:45.470Z,72.61
2016-12-05T13:25:56.635Z,72.32
2016-12-05T13:27:07.783Z,71.3
2016-12-05T13:28:18.952Z,69.4
2016-12-05T13:29:30.108Z,69.62
2016-12-05T13:30:41.304Z,70.07
2016-12-05T13:31:52.457Z,70.07
2016-12-05T13:33:03.634Z,70.65
2016-12-05T13:34:14.784Z,68.95
2016-12-05T13:35:25.944Z,68.27
2016-12-05T13:36:37.140Z,68.46
2016-12-05T13:37:48.289Z,69.72
2016-12-05T13:38:59.449Z,70.46
2016-12-05T13:40:10.621Z,72.16
2016-12-05T13:41:21.776Z,72.64
2016-12-05T13:42:32.936Z,71.68
2016-12-05T13:43:44.098Z,71.78
2016-12-05T13:44:55.844Z,72.64
2016-12-05T13:46:07.039Z,72.36
2016-12-05T13:47:18.215Z,70.52
2016-12-05T13:48:29.411Z,68.91
2016-12-05T13:49:40.581Z,69.43
2016-12-05T13:50:51.735Z,70.75
2016-12-05T13:52:02.901Z,72.45
2016-12-05T13:53:14.053Z,72.36
2016-12-05T13:54:25.240Z,71.3
2016-12-05T13:55:36.403Z,71.33
2016-12-05T13:56:47.548Z,68.59
2016-12-05T13:57:58.719Z,68.3
2016-12-05T13:59:09.948Z,67.66
2016-12-05T14:00:21.141Z,66.02
2016-12-05T14:01:32.880Z,65.24
2016-12-05T14:02:44.037Z,64.56
2016-12-05T14:03:55.209Z,64.59
2016-12-05T14:05:06.397Z,66.2
2016-12-05T14:06:17.535Z,67.69
2016-12-05T14:07:29.263Z,66.82
2016-12-05T14:08:40.448Z,65.98
2016-12-05T14:09:51.652Z,66.27
2016-12-05T14:11:02.968Z,67.95
2016-12-05T14:12:14.157Z,63.59
2016-12-05T14:13:25.323Z,65.43
2016-12-05T14:14:36.479Z,66.47
2016-12-05T14:15:47.854Z,67.63
2016-12-05T14:16:59.034Z,69.53
2016-12-05T14:18:10.190Z,68.52
2016-12-05T14:19:21.355Z,68.82
2016-12-05T14:20:32.511Z,66.43
2016-12-05T14:21:43.721Z,65.43
2016-12-05T14:22:55.456Z,64.47
2016-12-05T14:24:06.628Z,65.34
2016-12-05T14:25:17.783Z,65.63
2016-12-05T14:26:28.958Z,67.63
2016-12-05T14:27:40.135Z,67.63
2016-12-05T14:28:51.319Z,66.66
2016-12-05T14:30:02.476Z,66.85
2016-12-05T14:31:13.644Z,65.79
2016-12-05T14:32:24.811Z,65.34
2016-12-05T14:33:35.963Z,63.69
2016-12-05T14:34:47.113Z,64.79
2016-12-05T14:35:58.289Z,64.69
2016-12-05T14:37:09.458Z,65.14
2016-12-05T14:38:20.648Z,66.4
2016-12-05T14:39:31.828Z,64.85
2016-12-05T14:40:43.006Z,64.3
2016-12-05T14:41:54.209Z,64.66
2016-12-05T14:43:05.393Z,64.66
2016-12-05T14:44:16.564Z,64.75
2016-12-05T14:45:27.704Z,65.92
2016-12-05T14:46:38.880Z,63.72
2016-12-05T14:47:50.110Z,62.1
2016-12-05T14:49:01.327Z,60.97
2016-12-05T14:50:12.499Z,62.59
2016-12-05T14:51:23.673Z,64.89
2016-12-05T14:52:34.915Z,61.4
2016-12-05T14:53:46.116Z,62.56
2016-12-05T14:54:57.311Z,63.14
2016-12-05T14:56:08.477Z,61.88
2016-12-05T14:57:19.612Z,63.75
2016-12-05T14:58:30.803Z,59.23
2016-12-05T14:59:41.944Z,60.49
2016-12-05T15:00:53.131Z,61.43
2016-12-05T15:02:04.287Z,59.42
2016-12-05T15:03:15.468Z,59.74
2016-12-05T15:04:26.657Z,60.58
2016-12-05T15:05:37.841Z,61.33
2016-12-05T15:06:49.013Z,60.75
2016-12-05T15:08:00.234Z,61.24
2016-12-05T15:09:11.416Z,61.62
2016-12-05T15:10:22.602Z,61.69
2016-12-05T15:11:33.734Z,60.07
2016-12-05T15:12:44.922Z,55.77
2016-12-05T15:13:56.151Z,58.12
2016-12-05T15:15:07.326Z,60.2
2016-12-05T15:16:18.521Z,60.1
2016-12-05T15:17:29.698Z,60.78
2016-12-05T15:18:40.869Z,58.45
2016-12-05T15:19:52.606Z,58.48